San Francisco, California
Traffic Map
Current Weather Conditions
San Francisco, California
Few Clouds
Few Clouds
14°
Feels Like: 14°
Wind Chill: 14° Ceiling: Unl
Heat Index: 14° Visibility: 9mi
Dew Point: Wind: 7mph
Humidity: 53% Direction: 270° (W)
Pressure: 29.81in Gusts: 0mph
Raw Report DataKSFO 280956Z 27006KT 9SM FEW180 14/04 A2981 RMK AO2 SLP095 T01390044 $
Traffic Incident Summary
Active as of:
Severity:
Category:
InformationThere was an issue retrieving the traffic information for this location. Please try a different location or try again shortly.
Advertisements
Track Severe Weather on mobile